createdAt,value
2019-03-29T00:03:15.237Z,27.03
2019-03-29T00:08:23.264Z,26.25
2019-03-29T00:13:31.263Z,25.85
2019-03-29T00:18:39.270Z,26.30
2019-03-29T00:23:47.257Z,29.15
2019-03-29T00:28:55.313Z,28.57
2019-03-29T00:34:03.106Z,30.35
2019-03-29T00:39:11.267Z,30.45
2019-03-29T00:44:19.611Z,31.25
2019-03-29T00:49:27.501Z,26.05
2019-03-29T00:59:51.692Z,25.20
2019-03-29T01:04:59.616Z,25.65
2019-03-29T01:10:08.626Z,24.85
2019-03-29T01:15:16.834Z,29.05
2019-03-29T01:20:24.716Z,27.27
2019-03-29T01:25:32.627Z,28.10
2019-03-29T01:30:40.509Z,24.70
2019-03-29T01:35:48.438Z,27.75
2019-03-29T01:40:56.589Z,27.07
2019-03-29T01:46:04.590Z,27.93
2019-03-29T01:51:12.573Z,29.37
2019-03-29T01:56:20.451Z,27.48
2019-03-29T02:06:09.675Z,26.62
2019-03-29T02:11:17.589Z,25.52
2019-03-29T02:16:25.517Z,28.10
2019-03-29T02:21:33.678Z,25.35
2019-03-29T02:26:41.645Z,26.07
2019-03-29T02:31:49.612Z,25.35
2019-03-29T02:36:57.595Z,23.20
2019-03-29T02:42:05.605Z,23.65
2019-03-29T02:49:53.673Z,26.55
2019-03-29T02:55:01.634Z,25.00
2019-03-29T03:05:31.578Z,22.75
2019-03-29T03:10:39.578Z,22.58
2019-03-29T03:15:47.566Z,20.17
2019-03-29T03:20:55.419Z,20.88
2019-03-29T03:26:03.265Z,20.08
2019-03-29T03:31:11.066Z,20.40
2019-03-29T03:36:19.243Z,21.02
2019-03-29T03:41:27.477Z,21.70
2019-03-29T03:46:35.576Z,22.10
2019-03-29T03:51:43.568Z,22.27
2019-03-29T03:56:53.250Z,21.30
2019-03-29T04:02:01.038Z,22.82
2019-03-29T04:07:09.228Z,22.90
2019-03-29T04:12:17.258Z,27.27
2019-03-29T04:17:25.206Z,26.23
2019-03-29T04:22:33.076Z,26.05
2019-03-29T04:27:41.240Z,29.05
2019-03-29T04:33:49.988Z,29.80
2019-03-29T04:38:57.990Z,29.92
2019-03-29T04:47:22.931Z,30.88
2019-03-29T04:52:30.689Z,30.70
2019-03-29T04:57:38.605Z,32.15
2019-03-29T05:02:46.876Z,34.48
2019-03-29T05:07:54.899Z,34.40
2019-03-29T05:13:03.018Z,35.28
2019-03-29T05:18:40.672Z,34.67
2019-03-29T05:24:04.677Z,35.60
2019-03-29T05:29:13.067Z,35.63
2019-03-29T05:34:20.888Z,38.02
2019-03-29T05:39:28.692Z,38.80
2019-03-29T05:48:31.721Z,38.20
2019-03-29T05:53:39.670Z,35.50
2019-03-29T05:58:47.616Z,37.80
2019-03-29T06:03:55.565Z,38.50
2019-03-29T06:09:05.245Z,39.50
2019-03-29T06:14:13.250Z,36.98
2019-03-29T06:19:21.259Z,39.88
2019-03-29T06:24:29.073Z,39.18
2019-03-29T06:29:37.248Z,37.50
2019-03-29T06:34:45.267Z,38.60
2019-03-29T06:39:54.628Z,38.65
2019-03-29T06:45:02.576Z,37.83
2019-03-29T06:50:13.872Z,39.65
2019-03-29T06:55:20.452Z,37.28
2019-03-29T07:00:28.440Z,37.42
2019-03-29T07:05:36.408Z,37.33
2019-03-29T07:10:44.251Z,35.33
2019-03-29T07:15:52.040Z,35.80
2019-03-29T07:21:21.548Z,34.85
2019-03-29T07:31:34.061Z,33.67
2019-03-29T07:36:41.922Z,34.45
2019-03-29T07:42:52.661Z,34.48
2019-03-29T07:48:00.581Z,33.90
2019-03-29T07:53:08.756Z,34.43
2019-03-29T07:58:16.849Z,36.13
2019-03-29T08:03:26.038Z,37.78
2019-03-29T08:08:34.538Z,36.77
2019-03-29T08:13:44.258Z,36.38
2019-03-29T08:18:52.252Z,35.38
2019-03-29T08:24:00.267Z,36.23
2019-03-29T08:29:08.071Z,36.10
2019-03-29T08:34:16.076Z,34.65
2019-03-29T08:39:28.081Z,34.43
2019-03-29T08:44:33.839Z,32.67
2019-03-29T08:54:18.061Z,33.50
2019-03-29T08:59:26.038Z,31.35
2019-03-29T09:04:34.059Z,31.27
2019-03-29T09:09:42.454Z,29.67
2019-03-29T09:14:50.311Z,30.80
2019-03-29T09:19:58.431Z,29.00
2019-03-29T09:25:06.814Z,26.70
2019-03-29T09:30:14.928Z,25.43
2019-03-29T09:35:23.068Z,25.02
2019-03-29T09:40:31.423Z,28.38
2019-03-29T09:45:41.123Z,26.12
2019-03-29T09:50:50.909Z,25.30
2019-03-29T10:01:05.619Z,24.35
2019-03-29T10:06:15.338Z,23.98
2019-03-29T10:11:23.417Z,21.55
2019-03-29T10:16:31.231Z,20.27
2019-03-29T10:21:39.255Z,21.95
2019-03-29T10:26:47.077Z,20.73
2019-03-29T10:31:55.106Z,18.62
2019-03-29T10:37:03.258Z,16.55
2019-03-29T10:42:11.246Z,16.82
2019-03-29T10:52:27.064Z,15.18
2019-03-29T10:57:36.058Z,11.70
2019-03-29T11:02:44.058Z,12.47
2019-03-29T11:07:52.847Z,10.63
2019-03-29T11:13:11.934Z,9.63
2019-03-29T11:18:11.211Z,11.00
2019-03-29T11:23:19.220Z,8.77
2019-03-29T11:28:27.259Z,8.70
2019-03-29T11:33:35.208Z,9.35
2019-03-29T11:38:42.930Z,5.03
2019-03-29T11:43:50.699Z,3.50
2019-03-29T11:48:58.661Z,4.33
2019-03-29T11:54:06.608Z,3.00
2019-03-29T11:59:14.564Z,3.35
2019-03-29T12:04:22.443Z,3.87
2019-03-29T12:09:30.438Z,4.05
2019-03-29T12:14:38.450Z,3.55
2019-03-29T12:19:46.580Z,3.77
2019-03-29T12:24:54.612Z,4.20
2019-03-29T12:30:02.581Z,4.20
2019-03-29T12:35:10.652Z,3.90
2019-03-29T12:40:18.671Z,5.10
2019-03-29T12:45:26.568Z,3.52
2019-03-29T12:50:34.591Z,4.72
2019-03-29T12:55:42.569Z,3.60
2019-03-29T13:00:50.574Z,4.55
2019-03-29T13:05:58.588Z,4.28
2019-03-29T13:11:06.581Z,4.17
2019-03-29T13:16:14.599Z,4.40
2019-03-29T13:21:22.623Z,4.25
2019-03-29T13:26:30.588Z,5.08
2019-03-29T13:31:38.582Z,5.62
2019-03-29T13:36:46.626Z,5.58
2019-03-29T13:41:54.432Z,6.28
2019-03-29T13:47:02.269Z,5.85
2019-03-29T13:57:18.062Z,6.67
2019-03-29T14:02:26.760Z,6.00
2019-03-29T14:07:38.275Z,6.43
2019-03-29T14:17:54.104Z,6.70
2019-03-29T14:23:02.737Z,7.15
2019-03-29T14:28:11.248Z,6.83
2019-03-29T14:33:19.257Z,6.22
2019-03-29T14:38:27.591Z,6.93
2019-03-29T14:43:35.577Z,7.08
2019-03-29T14:48:43.566Z,6.58
2019-03-29T14:53:51.588Z,7.10
2019-03-29T14:58:59.705Z,7.08
2019-03-29T15:04:07.721Z,6.72
2019-03-29T15:09:15.706Z,8.13
2019-03-29T15:14:23.589Z,7.97
2019-03-29T15:19:31.599Z,7.95
2019-03-29T15:24:39.590Z,7.33
2019-03-29T15:29:47.679Z,7.67
2019-03-29T15:34:55.616Z,7.30
2019-03-29T15:40:03.636Z,8.13
2019-03-29T15:45:20.256Z,7.60
2019-03-29T15:50:21.878Z,7.65
2019-03-29T15:55:29.915Z,7.47
2019-03-29T16:00:37.915Z,7.03
2019-03-29T16:05:48.498Z,7.62
2019-03-29T16:21:22.098Z,7.35
2019-03-29T16:26:30.062Z,6.95
2019-03-29T16:31:38.037Z,6.58
2019-03-29T16:36:46.251Z,7.60
2019-03-29T16:47:00.599Z,8.33
2019-03-29T16:55:12.372Z,7.53
2019-03-29T17:00:12.978Z,8.80
2019-03-29T17:05:21.074Z,8.38
2019-03-29T17:10:29.046Z,8.53
2019-03-29T17:15:38.241Z,8.68
2019-03-29T17:25:52.636Z,8.48
2019-03-29T17:31:03.256Z,8.78
2019-03-29T17:41:18.028Z,9.18
2019-03-29T17:46:26.067Z,9.73
2019-03-29T17:51:34.037Z,8.83
2019-03-29T17:56:42.241Z,10.18
2019-03-29T18:01:50.057Z,10.30
2019-03-29T18:06:58.126Z,10.65
2019-03-29T18:12:06.259Z,10.58
2019-03-29T18:17:14.227Z,9.65
2019-03-29T18:27:28.805Z,9.63
2019-03-29T18:32:37.244Z,9.58
2019-03-29T18:37:45.452Z,10.53
2019-03-29T18:42:53.228Z,9.68
2019-03-29T18:48:01.270Z,10.85
2019-03-29T18:53:09.077Z,10.70
2019-03-29T18:58:16.916Z,9.85
2019-03-29T19:03:24.926Z,11.78
2019-03-29T19:08:36.133Z,13.22
2019-03-29T19:13:44.019Z,15.38
2019-03-29T19:20:50.027Z,16.85
2019-03-29T19:26:02.299Z,16.25
2019-03-29T19:31:10.251Z,16.25
2019-03-29T19:36:18.252Z,14.50
2019-03-29T19:41:26.253Z,15.80
2019-03-29T19:46:34.258Z,27.48
2019-03-29T19:51:42.077Z,38.05
2019-03-29T19:56:50.085Z,74.35
2019-03-29T20:01:58.266Z,47.10
2019-03-29T20:07:06.476Z,42.85
2019-03-29T20:12:14.302Z,20.85
2019-03-29T20:17:27.573Z,15.30
2019-03-29T20:22:31.857Z,17.55
2019-03-29T20:27:40.850Z,16.97
2019-03-29T20:32:49.045Z,23.90
2019-03-29T20:37:57.263Z,23.38
2019-03-29T20:43:05.142Z,16.57
2019-03-29T20:48:13.058Z,15.18
2019-03-29T20:53:21.100Z,15.50
2019-03-29T20:58:29.092Z,13.18
2019-03-29T21:03:37.543Z,12.50
2019-03-29T21:08:46.605Z,15.53
2019-03-29T21:13:54.589Z,17.77
2019-03-29T21:19:02.655Z,19.67
2019-03-29T21:24:10.943Z,23.38
2019-03-29T21:29:19.077Z,28.10
2019-03-29T21:34:27.264Z,27.52
2019-03-29T21:39:35.238Z,19.00
2019-03-29T21:44:45.178Z,14.83
2019-03-29T21:49:53.055Z,14.23
2019-03-29T21:55:01.066Z,13.40
2019-03-29T22:00:11.654Z,14.38
2019-03-29T22:05:19.630Z,13.70
2019-03-29T22:10:27.649Z,14.87
2019-03-29T22:15:35.885Z,17.10
2019-03-29T22:20:47.274Z,14.25
2019-03-29T22:31:02.262Z,14.13
2019-03-29T22:36:10.277Z,14.83
2019-03-29T22:42:16.691Z,22.15
2019-03-29T22:47:24.567Z,16.77
2019-03-29T22:52:32.612Z,15.32
2019-03-29T22:57:40.566Z,16.25
2019-03-29T23:02:48.648Z,15.32
2019-03-29T23:07:56.461Z,16.73
2019-03-29T23:13:04.266Z,15.57
2019-03-29T23:18:12.278Z,15.25
2019-03-29T23:23:20.060Z,16.42
2019-03-29T23:28:29.067Z,17.27
2019-03-29T23:33:36.950Z,18.20
2019-03-29T23:38:44.936Z,17.77
2019-03-29T23:43:52.930Z,18.40
2019-03-29T23:49:00.881Z,19.77
2019-03-29T23:54:08.908Z,19.50
2019-03-29T23:59:17.060Z,18.98
